sensor_id;sensor_type;location;lat;lon;timestamp;P1;durP1;ratioP1;P2;durP2;ratioP2
38529;SDS011;24301;54.332;48.386;2022-09-01T00:01:29;9.68;;;6.30;;
38529;SDS011;24301;54.332;48.386;2022-09-01T00:03:56;9.30;;;6.25;;
38529;SDS011;24301;54.332;48.386;2022-09-01T00:06:28;9.82;;;6.95;;
38529;SDS011;24301;54.332;48.386;2022-09-01T00:08:58;14.95;;;7.63;;
38529;SDS011;24301;54.332;48.386;2022-09-01T00:11:26;11.60;;;7.65;;
38529;SDS011;24301;54.332;48.386;2022-09-01T00:13:53;10.57;;;8.48;;
38529;SDS011;24301;54.332;48.386;2022-09-01T00:16:20;12.68;;;8.25;;
38529;SDS011;24301;54.332;48.386;2022-09-01T00:18:47;15.13;;;9.20;;
38529;SDS011;24301;54.332;48.386;2022-09-01T00:21:19;13.15;;;10.10;;
38529;SDS011;24301;54.332;48.386;2022-09-01T00:23:49;13.32;;;9.63;;
38529;SDS011;24301;54.332;48.386;2022-09-01T00:26:15;20.95;;;8.48;;
38529;SDS011;24301;54.332;48.386;2022-09-01T00:28:41;10.73;;;8.07;;
38529;SDS011;24301;54.332;48.386;2022-09-01T00:31:07;13.70;;;8.98;;
38529;SDS011;24301;54.332;48.386;2022-09-01T00:33:35;10.93;;;8.10;;
38529;SDS011;24301;54.332;48.386;2022-09-01T00:36:02;11.25;;;7.45;;
38529;SDS011;24301;54.332;48.386;2022-09-01T00:38:29;11.55;;;8.57;;
38529;SDS011;24301;54.332;48.386;2022-09-01T00:40:55;11.70;;;8.23;;
38529;SDS011;24301;54.332;48.386;2022-09-01T00:43:23;10.55;;;7.85;;
38529;SDS011;24301;54.332;48.386;2022-09-01T00:46:00;11.40;;;7.70;;
38529;SDS011;24301;54.332;48.386;2022-09-01T00:48:30;11.35;;;8.25;;
38529;SDS011;24301;54.332;48.386;2022-09-01T00:50:57;10.10;;;7.38;;
38529;SDS011;24301;54.332;48.386;2022-09-01T00:53:23;9.80;;;7.38;;
38529;SDS011;24301;54.332;48.386;2022-09-01T00:55:50;9.52;;;7.90;;
38529;SDS011;24301;54.332;48.386;2022-09-01T00:58:16;10.65;;;7.72;;
38529;SDS011;24301;54.332;48.386;2022-09-01T01:00:42;13.90;;;7.65;;
38529;SDS011;24301;54.332;48.386;2022-09-01T01:03:11;12.07;;;7.50;;
38529;SDS011;24301;54.332;48.386;2022-09-01T01:08:41;7.05;;;6.13;;
38529;SDS011;24301;54.332;48.386;2022-09-01T01:13:52;12.93;;;6.93;;
38529;SDS011;24301;54.332;48.386;2022-09-01T01:16:24;8.85;;;6.65;;
38529;SDS011;24301;54.332;48.386;2022-09-01T01:18:52;9.15;;;6.53;;
38529;SDS011;24301;54.332;48.386;2022-09-01T01:21:20;7.75;;;6.32;;
38529;SDS011;24301;54.332;48.386;2022-09-01T01:26:51;9.77;;;6.70;;
38529;SDS011;24301;54.332;48.386;2022-09-01T01:29:17;12.07;;;6.05;;
38529;SDS011;24301;54.332;48.386;2022-09-01T01:31:45;8.82;;;5.90;;
38529;SDS011;24301;54.332;48.386;2022-09-01T01:34:14;12.20;;;6.63;;
38529;SDS011;24301;54.332;48.386;2022-09-01T01:36:42;8.93;;;6.70;;
38529;SDS011;24301;54.332;48.386;2022-09-01T01:39:14;8.50;;;6.70;;
38529;SDS011;24301;54.332;48.386;2022-09-01T01:41:43;13.45;;;6.55;;
38529;SDS011;24301;54.332;48.386;2022-09-01T01:44:14;8.38;;;6.95;;
38529;SDS011;24301;54.332;48.386;2022-09-01T01:46:47;9.55;;;6.28;;
38529;SDS011;24301;54.332;48.386;2022-09-01T01:49:16;12.63;;;6.40;;
38529;SDS011;24301;54.332;48.386;2022-09-01T01:51:46;9.30;;;6.35;;
38529;SDS011;24301;54.332;48.386;2022-09-01T01:54:14;7.68;;;6.90;;
38529;SDS011;24301;54.332;48.386;2022-09-01T01:56:41;8.82;;;7.03;;
38529;SDS011;24301;54.332;48.386;2022-09-01T01:59:08;12.60;;;7.45;;
38529;SDS011;24301;54.332;48.386;2022-09-01T02:01:36;10.40;;;7.40;;
38529;SDS011;24301;54.332;48.386;2022-09-01T02:04:04;10.93;;;7.55;;
38529;SDS011;24301;54.332;48.386;2022-09-01T02:06:32;12.13;;;7.50;;
38529;SDS011;24301;54.332;48.386;2022-09-01T02:08:59;8.80;;;6.65;;
38529;SDS011;24301;54.332;48.386;2022-09-01T02:11:27;11.68;;;7.32;;
38529;SDS011;24301;54.332;48.386;2022-09-01T02:13:55;9.43;;;7.28;;
38529;SDS011;24301;54.332;48.386;2022-09-01T02:16:22;10.18;;;7.75;;
38529;SDS011;24301;54.332;48.386;2022-09-01T02:18:50;11.77;;;8.07;;
38529;SDS011;24301;54.332;48.386;2022-09-01T02:21:17;12.25;;;8.00;;
38529;SDS011;24301;54.332;48.386;2022-09-01T02:23:48;12.98;;;9.57;;
38529;SDS011;24301;54.332;48.386;2022-09-01T02:26:24;13.25;;;9.60;;
38529;SDS011;24301;54.332;48.386;2022-09-01T02:28:54;14.23;;;9.38;;
38529;SDS011;24301;54.332;48.386;2022-09-01T02:31:24;10.93;;;9.10;;
38529;SDS011;24301;54.332;48.386;2022-09-01T02:33:52;12.90;;;8.55;;
38529;SDS011;24301;54.332;48.386;2022-09-01T02:36:19;15.30;;;8.55;;
38529;SDS011;24301;54.332;48.386;2022-09-01T02:38:45;11.05;;;7.82;;
38529;SDS011;24301;54.332;48.386;2022-09-01T02:41:12;9.70;;;7.80;;
38529;SDS011;24301;54.332;48.386;2022-09-01T02:43:40;10.50;;;7.80;;
38529;SDS011;24301;54.332;48.386;2022-09-01T02:46:08;12.82;;;8.30;;
38529;SDS011;24301;54.332;48.386;2022-09-01T02:48:36;10.98;;;7.28;;
38529;SDS011;24301;54.332;48.386;2022-09-01T02:51:05;13.60;;;7.63;;
38529;SDS011;24301;54.332;48.386;2022-09-01T02:53:33;9.35;;;7.07;;
38529;SDS011;24301;54.332;48.386;2022-09-01T02:56:01;11.90;;;7.40;;
38529;SDS011;24301;54.332;48.386;2022-09-01T02:58:34;12.02;;;6.72;;
38529;SDS011;24301;54.332;48.386;2022-09-01T03:01:09;13.88;;;7.18;;
38529;SDS011;24301;54.332;48.386;2022-09-01T03:03:54;12.40;;;7.32;;
38529;SDS011;24301;54.332;48.386;2022-09-01T03:06:22;9.70;;;7.10;;
38529;SDS011;24301;54.332;48.386;2022-09-01T03:08:50;12.68;;;8.05;;
38529;SDS011;24301;54.332;48.386;2022-09-01T03:11:17;15.35;;;8.32;;
38529;SDS011;24301;54.332;48.386;2022-09-01T03:13:43;18.40;;;10.27;;
38529;SDS011;24301;54.332;48.386;2022-09-01T03:16:10;19.75;;;8.88;;
38529;SDS011;24301;54.332;48.386;2022-09-01T03:18:36;12.52;;;8.75;;
38529;SDS011;24301;54.332;48.386;2022-09-01T03:21:02;14.25;;;8.35;;
38529;SDS011;24301;54.332;48.386;2022-09-01T03:23:29;11.35;;;7.65;;
38529;SDS011;24301;54.332;48.386;2022-09-01T03:25:56;10.25;;;7.07;;
38529;SDS011;24301;54.332;48.386;2022-09-01T03:28:22;10.57;;;7.65;;
38529;SDS011;24301;54.332;48.386;2022-09-01T03:30:50;14.70;;;8.15;;
38529;SDS011;24301;54.332;48.386;2022-09-01T03:33:20;12.63;;;8.43;;
38529;SDS011;24301;54.332;48.386;2022-09-01T03:35:48;12.68;;;8.90;;
38529;SDS011;24301;54.332;48.386;2022-09-01T03:38:14;14.45;;;9.25;;
38529;SDS011;24301;54.332;48.386;2022-09-01T03:41:03;13.85;;;8.23;;
38529;SDS011;24301;54.332;48.386;2022-09-01T03:43:30;12.95;;;8.48;;
38529;SDS011;24301;54.332;48.386;2022-09-01T03:45:59;14.23;;;8.70;;
38529;SDS011;24301;54.332;48.386;2022-09-01T03:48:29;14.90;;;9.20;;
38529;SDS011;24301;54.332;48.386;2022-09-01T03:50:57;11.73;;;8.93;;
38529;SDS011;24301;54.332;48.386;2022-09-01T03:53:30;13.43;;;9.93;;
38529;SDS011;24301;54.332;48.386;2022-09-01T03:56:00;13.38;;;9.48;;
38529;SDS011;24301;54.332;48.386;2022-09-01T03:58:29;18.83;;;9.90;;
38529;SDS011;24301;54.332;48.386;2022-09-01T04:00:57;17.40;;;10.27;;
38529;SDS011;24301;54.332;48.386;2022-09-01T04:03:28;18.15;;;10.10;;
38529;SDS011;24301;54.332;48.386;2022-09-01T04:05:58;15.43;;;10.13;;
38529;SDS011;24301;54.332;48.386;2022-09-01T04:08:25;11.50;;;8.52;;
38529;SDS011;24301;54.332;48.386;2022-09-01T04:10:56;13.57;;;9.95;;
38529;SDS011;24301;54.332;48.386;2022-09-01T04:13:29;15.38;;;10.20;;
38529;SDS011;24301;54.332;48.386;2022-09-01T04:15:58;14.30;;;10.23;;
38529;SDS011;24301;54.332;48.386;2022-09-01T04:18:44;15.10;;;9.98;;
38529;SDS011;24301;54.332;48.386;2022-09-01T04:21:13;18.00;;;12.30;;
38529;SDS011;24301;54.332;48.386;2022-09-01T04:23:39;15.88;;;11.27;;
38529;SDS011;24301;54.332;48.386;2022-09-01T04:26:08;16.42;;;11.45;;
38529;SDS011;24301;54.332;48.386;2022-09-01T04:28:43;20.45;;;13.05;;
38529;SDS011;24301;54.332;48.386;2022-09-01T04:31:17;14.93;;;11.52;;
38529;SDS011;24301;54.332;48.386;2022-09-01T04:33:50;15.25;;;12.77;;
38529;SDS011;24301;54.332;48.386;2022-09-01T04:36:21;15.85;;;11.93;;
38529;SDS011;24301;54.332;48.386;2022-09-01T04:38:52;20.58;;;12.38;;
38529;SDS011;24301;54.332;48.386;2022-09-01T04:41:25;15.67;;;12.23;;
38529;SDS011;24301;54.332;48.386;2022-09-01T04:43:56;14.52;;;10.45;;
38529;SDS011;24301;54.332;48.386;2022-09-01T04:46:33;18.52;;;11.98;;
38529;SDS011;24301;54.332;48.386;2022-09-01T04:49:07;16.48;;;12.23;;
38529;SDS011;24301;54.332;48.386;2022-09-01T04:51:37;14.93;;;12.27;;
38529;SDS011;24301;54.332;48.386;2022-09-01T04:54:12;15.75;;;12.45;;
38529;SDS011;24301;54.332;48.386;2022-09-01T04:56:42;15.57;;;12.90;;
38529;SDS011;24301;54.332;48.386;2022-09-01T04:59:12;14.93;;;11.80;;
38529;SDS011;24301;54.332;48.386;2022-09-01T05:01:40;17.17;;;12.20;;
38529;SDS011;24301;54.332;48.386;2022-09-01T05:04:17;15.55;;;11.13;;
38529;SDS011;24301;54.332;48.386;2022-09-01T05:06:48;13.77;;;11.18;;
38529;SDS011;24301;54.332;48.386;2022-09-01T05:09:24;18.52;;;10.55;;
38529;SDS011;24301;54.332;48.386;2022-09-01T05:11:57;18.45;;;11.40;;
38529;SDS011;24301;54.332;48.386;2022-09-01T05:14:36;12.07;;;10.85;;
38529;SDS011;24301;54.332;48.386;2022-09-01T05:17:10;14.52;;;11.15;;
38529;SDS011;24301;54.332;48.386;2022-09-01T05:19:38;12.95;;;10.30;;
38529;SDS011;24301;54.332;48.386;2022-09-01T05:22:06;16.38;;;12.25;;
38529;SDS011;24301;54.332;48.386;2022-09-01T05:24:38;16.27;;;12.20;;
38529;SDS011;24301;54.332;48.386;2022-09-01T05:27:05;16.55;;;12.43;;
38529;SDS011;24301;54.332;48.386;2022-09-01T05:29:34;12.52;;;11.23;;
38529;SDS011;24301;54.332;48.386;2022-09-01T05:32:03;15.70;;;10.75;;
38529;SDS011;24301;54.332;48.386;2022-09-01T05:34:37;15.32;;;11.38;;
38529;SDS011;24301;54.332;48.386;2022-09-01T05:37:07;14.07;;;10.30;;
38529;SDS011;24301;54.332;48.386;2022-09-01T05:39:36;12.88;;;10.57;;
38529;SDS011;24301;54.332;48.386;2022-09-01T05:42:03;15.88;;;10.63;;
38529;SDS011;24301;54.332;48.386;2022-09-01T05:44:42;16.15;;;11.13;;
38529;SDS011;24301;54.332;48.386;2022-09-01T05:47:10;13.27;;;9.50;;
38529;SDS011;24301;54.332;48.386;2022-09-01T05:49:39;16.17;;;9.57;;
38529;SDS011;24301;54.332;48.386;2022-09-01T05:52:06;13.65;;;10.38;;
38529;SDS011;24301;54.332;48.386;2022-09-01T05:54:34;13.60;;;8.82;;
38529;SDS011;24301;54.332;48.386;2022-09-01T05:57:01;11.25;;;8.93;;
38529;SDS011;24301;54.332;48.386;2022-09-01T05:59:27;11.57;;;8.65;;
38529;SDS011;24301;54.332;48.386;2022-09-01T06:01:59;12.52;;;8.63;;
38529;SDS011;24301;54.332;48.386;2022-09-01T06:04:25;16.95;;;8.75;;
38529;SDS011;24301;54.332;48.386;2022-09-01T06:06:54;13.50;;;6.72;;
38529;SDS011;24301;54.332;48.386;2022-09-01T06:09:21;10.73;;;6.65;;
38529;SDS011;24301;54.332;48.386;2022-09-01T06:11:53;8.85;;;6.53;;
38529;SDS011;24301;54.332;48.386;2022-09-01T06:14:23;10.35;;;7.00;;
38529;SDS011;24301;54.332;48.386;2022-09-01T06:16:50;10.65;;;6.18;;
38529;SDS011;24301;54.332;48.386;2022-09-01T06:19:18;12.85;;;6.55;;
38529;SDS011;24301;54.332;48.386;2022-09-01T06:21:46;11.50;;;6.38;;
38529;SDS011;24301;54.332;48.386;2022-09-01T06:24:13;8.70;;;5.53;;
38529;SDS011;24301;54.332;48.386;2022-09-01T06:26:39;10.95;;;5.07;;
38529;SDS011;24301;54.332;48.386;2022-09-01T06:29:07;10.60;;;6.28;;
38529;SDS011;24301;54.332;48.386;2022-09-01T06:31:41;9.65;;;5.80;;
38529;SDS011;24301;54.332;48.386;2022-09-01T06:34:09;10.70;;;6.63;;
38529;SDS011;24301;54.332;48.386;2022-09-01T06:36:43;8.20;;;5.03;;
38529;SDS011;24301;54.332;48.386;2022-09-01T06:39:11;6.53;;;4.65;;
38529;SDS011;24301;54.332;48.386;2022-09-01T06:41:46;8.27;;;4.88;;
38529;SDS011;24301;54.332;48.386;2022-09-01T06:44:14;6.82;;;4.40;;
38529;SDS011;24301;54.332;48.386;2022-09-01T06:46:50;8.23;;;5.22;;
38529;SDS011;24301;54.332;48.386;2022-09-01T06:49:19;10.77;;;5.38;;
38529;SDS011;24301;54.332;48.386;2022-09-01T06:51:46;5.55;;;3.85;;
38529;SDS011;24301;54.332;48.386;2022-09-01T06:54:16;6.05;;;4.15;;
38529;SDS011;24301;54.332;48.386;2022-09-01T06:56:44;10.30;;;4.90;;
38529;SDS011;24301;54.332;48.386;2022-09-01T06:59:11;5.63;;;3.40;;
38529;SDS011;24301;54.332;48.386;2022-09-01T07:01:42;8.65;;;3.90;;
38529;SDS011;24301;54.332;48.386;2022-09-01T07:04:08;6.55;;;3.65;;
38529;SDS011;24301;54.332;48.386;2022-09-01T07:06:47;5.07;;;3.38;;
38529;SDS011;24301;54.332;48.386;2022-09-01T07:09:17;6.90;;;3.33;;
38529;SDS011;24301;54.332;48.386;2022-09-01T07:11:59;5.10;;;2.92;;
38529;SDS011;24301;54.332;48.386;2022-09-01T07:14:25;8.75;;;3.45;;
38529;SDS011;24301;54.332;48.386;2022-09-01T07:16:51;13.55;;;6.45;;
38529;SDS011;24301;54.332;48.386;2022-09-01T07:19:17;13.93;;;7.13;;
38529;SDS011;24301;54.332;48.386;2022-09-01T07:21:51;9.50;;;5.07;;
38529;SDS011;24301;54.332;48.386;2022-09-01T07:24:18;5.22;;;4.13;;
38529;SDS011;24301;54.332;48.386;2022-09-01T07:27:03;5.05;;;3.20;;
38529;SDS011;24301;54.332;48.386;2022-09-01T07:29:29;8.02;;;3.50;;
38529;SDS011;24301;54.332;48.386;2022-09-01T07:31:55;6.28;;;3.38;;
38529;SDS011;24301;54.332;48.386;2022-09-01T07:34:21;6.13;;;3.20;;
38529;SDS011;24301;54.332;48.386;2022-09-01T07:36:48;6.75;;;3.45;;
38529;SDS011;24301;54.332;48.386;2022-09-01T07:39:14;7.45;;;3.85;;
38529;SDS011;24301;54.332;48.386;2022-09-01T07:41:50;7.75;;;4.05;;
38529;SDS011;24301;54.332;48.386;2022-09-01T07:44:39;6.13;;;3.47;;
38529;SDS011;24301;54.332;48.386;2022-09-01T07:47:24;4.25;;;2.72;;
38529;SDS011;24301;54.332;48.386;2022-09-01T07:49:49;8.88;;;3.30;;
38529;SDS011;24301;54.332;48.386;2022-09-01T07:52:15;3.83;;;2.80;;
38529;SDS011;24301;54.332;48.386;2022-09-01T07:54:43;7.63;;;2.92;;
38529;SDS011;24301;54.332;48.386;2022-09-01T07:57:09;6.63;;;2.92;;
38529;SDS011;24301;54.332;48.386;2022-09-01T07:59:35;7.95;;;2.47;;
38529;SDS011;24301;54.332;48.386;2022-09-01T08:02:30;5.00;;;2.40;;
38529;SDS011;24301;54.332;48.386;2022-09-01T08:04:57;6.53;;;2.42;;
38529;SDS011;24301;54.332;48.386;2022-09-01T08:07:25;4.95;;;2.50;;
38529;SDS011;24301;54.332;48.386;2022-09-01T08:09:51;4.07;;;2.45;;
38529;SDS011;24301;54.332;48.386;2022-09-01T08:12:17;4.53;;;2.53;;
38529;SDS011;24301;54.332;48.386;2022-09-01T08:14:46;7.35;;;2.70;;
38529;SDS011;24301;54.332;48.386;2022-09-01T08:17:18;4.55;;;2.00;;
38529;SDS011;24301;54.332;48.386;2022-09-01T08:19:44;5.95;;;2.05;;
38529;SDS011;24301;54.332;48.386;2022-09-01T08:22:18;3.33;;;1.63;;
38529;SDS011;24301;54.332;48.386;2022-09-01T08:25:06;4.50;;;2.22;;
38529;SDS011;24301;54.332;48.386;2022-09-01T08:27:35;4.63;;;2.13;;
38529;SDS011;24301;54.332;48.386;2022-09-01T08:30:04;4.90;;;2.03;;
38529;SDS011;24301;54.332;48.386;2022-09-01T08:32:32;3.70;;;1.73;;
38529;SDS011;24301;54.332;48.386;2022-09-01T08:34:59;4.00;;;1.90;;
38529;SDS011;24301;54.332;48.386;2022-09-01T08:37:25;5.93;;;1.73;;
38529;SDS011;24301;54.332;48.386;2022-09-01T08:39:52;3.53;;;2.00;;
38529;SDS011;24301;54.332;48.386;2022-09-01T08:45:01;6.65;;;2.20;;
38529;SDS011;24301;54.332;48.386;2022-09-01T08:47:38;3.50;;;1.90;;
38529;SDS011;24301;54.332;48.386;2022-09-01T08:50:04;4.47;;;2.10;;
38529;SDS011;24301;54.332;48.386;2022-09-01T08:53:02;7.53;;;2.17;;
38529;SDS011;24301;54.332;48.386;2022-09-01T08:55:35;4.78;;;2.30;;
38529;SDS011;24301;54.332;48.386;2022-09-01T08:58:07;4.82;;;1.85;;
38529;SDS011;24301;54.332;48.386;2022-09-01T09:00:54;6.97;;;2.25;;
38529;SDS011;24301;54.332;48.386;2022-09-01T09:06:37;5.95;;;2.00;;
38529;SDS011;24301;54.332;48.386;2022-09-01T09:09:27;5.70;;;1.80;;
38529;SDS011;24301;54.332;48.386;2022-09-01T09:12:09;8.27;;;2.40;;
38529;SDS011;24301;54.332;48.386;2022-09-01T09:17:35;3.20;;;2.17;;
38529;SDS011;24301;54.332;48.386;2022-09-01T09:20:06;5.57;;;1.70;;
38529;SDS011;24301;54.332;48.386;2022-09-01T09:22:32;3.65;;;1.95;;
38529;SDS011;24301;54.332;48.386;2022-09-01T09:27:34;3.55;;;1.58;;
38529;SDS011;24301;54.332;48.386;2022-09-01T09:35:30;5.82;;;2.25;;
38529;SDS011;24301;54.332;48.386;2022-09-01T09:41:00;4.53;;;1.50;;
38529;SDS011;24301;54.332;48.386;2022-09-01T09:43:36;2.88;;;1.75;;
38529;SDS011;24301;54.332;48.386;2022-09-01T09:46:21;3.50;;;1.77;;
38529;SDS011;24301;54.332;48.386;2022-09-01T09:51:31;3.00;;;1.60;;
38529;SDS011;24301;54.332;48.386;2022-09-01T09:56:44;2.17;;;1.55;;
38529;SDS011;24301;54.332;48.386;2022-09-01T09:59:30;6.32;;;1.58;;
38529;SDS011;24301;54.332;48.386;2022-09-01T10:02:06;5.78;;;1.45;;
38529;SDS011;24301;54.332;48.386;2022-09-01T10:04:50;4.80;;;2.20;;
38529;SDS011;24301;54.332;48.386;2022-09-01T10:09:52;11.48;;;5.13;;
38529;SDS011;24301;54.332;48.386;2022-09-01T10:12:20;6.30;;;4.13;;
38529;SDS011;24301;54.332;48.386;2022-09-01T10:15:07;6.07;;;3.03;;
38529;SDS011;24301;54.332;48.386;2022-09-01T10:17:38;7.35;;;3.38;;
38529;SDS011;24301;54.332;48.386;2022-09-01T10:20:14;2.92;;;1.80;;
38529;SDS011;24301;54.332;48.386;2022-09-01T10:22:48;3.65;;;2.00;;
38529;SDS011;24301;54.332;48.386;2022-09-01T10:25:19;4.03;;;1.70;;
38529;SDS011;24301;54.332;48.386;2022-09-01T10:27:48;3.40;;;1.38;;
38529;SDS011;24301;54.332;48.386;2022-09-01T10:30:22;6.45;;;1.85;;
38529;SDS011;24301;54.332;48.386;2022-09-01T10:32:55;3.00;;;1.60;;
38529;SDS011;24301;54.332;48.386;2022-09-01T10:35:25;4.47;;;1.92;;
38529;SDS011;24301;54.332;48.386;2022-09-01T10:42:56;2.85;;;1.50;;
38529;SDS011;24301;54.332;48.386;2022-09-01T10:45:35;4.63;;;1.57;;
38529;SDS011;24301;54.332;48.386;2022-09-01T10:48:21;3.45;;;1.85;;
38529;SDS011;24301;54.332;48.386;2022-09-01T10:53:53;2.80;;;1.95;;
38529;SDS011;24301;54.332;48.386;2022-09-01T11:04:05;5.10;;;2.00;;
38529;SDS011;24301;54.332;48.386;2022-09-01T11:06:41;5.15;;;2.35;;
38529;SDS011;24301;54.332;48.386;2022-09-01T11:14:21;3.15;;;2.13;;
38529;SDS011;24301;54.332;48.386;2022-09-01T11:27:09;3.75;;;1.20;;
38529;SDS011;24301;54.332;48.386;2022-09-01T11:32:36;2.60;;;1.50;;
38529;SDS011;24301;54.332;48.386;2022-09-01T11:35:04;3.83;;;1.80;;
38529;SDS011;24301;54.332;48.386;2022-09-01T11:37:38;5.63;;;1.40;;
38529;SDS011;24301;54.332;48.386;2022-09-01T11:40:05;3.95;;;1.45;;
38529;SDS011;24301;54.332;48.386;2022-09-01T11:42:39;3.85;;;1.42;;
38529;SDS011;24301;54.332;48.386;2022-09-01T11:45:17;6.35;;;1.70;;
38529;SDS011;24301;54.332;48.386;2022-09-01T11:47:48;5.15;;;2.03;;
38529;SDS011;24301;54.332;48.386;2022-09-01T11:50:33;2.33;;;1.40;;
38529;SDS011;24301;54.332;48.386;2022-09-01T11:53:03;3.05;;;1.60;;
38529;SDS011;24301;54.332;48.386;2022-09-01T11:55:49;5.25;;;1.70;;
38529;SDS011;24301;54.332;48.386;2022-09-01T12:00:52;4.18;;;1.85;;
38529;SDS011;24301;54.332;48.386;2022-09-01T12:03:28;3.55;;;1.50;;
38529;SDS011;24301;54.332;48.386;2022-09-01T12:08:30;2.47;;;1.42;;
38529;SDS011;24301;54.332;48.386;2022-09-01T12:11:18;3.08;;;1.98;;
38529;SDS011;24301;54.332;48.386;2022-09-01T12:13:57;4.95;;;1.70;;
38529;SDS011;24301;54.332;48.386;2022-09-01T12:16:29;3.13;;;1.80;;
38529;SDS011;24301;54.332;48.386;2022-09-01T12:18:59;5.60;;;1.80;;
38529;SDS011;24301;54.332;48.386;2022-09-01T12:21:54;5.25;;;1.80;;
38529;SDS011;24301;54.332;48.386;2022-09-01T12:24:21;3.40;;;1.70;;
38529;SDS011;24301;54.332;48.386;2022-09-01T12:26:52;2.65;;;1.73;;
38529;SDS011;24301;54.332;48.386;2022-09-01T12:29:20;4.43;;;1.50;;
38529;SDS011;24301;54.332;48.386;2022-09-01T12:32:09;4.25;;;1.95;;
38529;SDS011;24301;54.332;48.386;2022-09-01T12:34:37;3.67;;;1.77;;
38529;SDS011;24301;54.332;48.386;2022-09-01T12:37:10;12.27;;;3.25;;
38529;SDS011;24301;54.332;48.386;2022-09-01T12:39:46;5.35;;;2.17;;
38529;SDS011;24301;54.332;48.386;2022-09-01T12:44:51;5.13;;;2.80;;
38529;SDS011;24301;54.332;48.386;2022-09-01T13:00:54;4.15;;;1.90;;
38529;SDS011;24301;54.332;48.386;2022-09-01T13:03:23;5.93;;;3.28;;
38529;SDS011;24301;54.332;48.386;2022-09-01T13:05:55;11.30;;;5.45;;
38529;SDS011;24301;54.332;48.386;2022-09-01T13:08:25;8.63;;;5.38;;
38529;SDS011;24301;54.332;48.386;2022-09-01T13:10:54;13.52;;;6.05;;
38529;SDS011;24301;54.332;48.386;2022-09-01T13:13:24;14.52;;;6.13;;
38529;SDS011;24301;54.332;48.386;2022-09-01T13:15:52;10.65;;;6.55;;
38529;SDS011;24301;54.332;48.386;2022-09-01T13:18:20;9.88;;;6.28;;
38529;SDS011;24301;54.332;48.386;2022-09-01T13:20:48;7.38;;;5.20;;
38529;SDS011;24301;54.332;48.386;2022-09-01T13:23:15;5.60;;;3.92;;
38529;SDS011;24301;54.332;48.386;2022-09-01T13:25:42;8.68;;;4.18;;
38529;SDS011;24301;54.332;48.386;2022-09-01T13:28:11;7.70;;;4.40;;
38529;SDS011;24301;54.332;48.386;2022-09-01T13:30:38;6.75;;;3.55;;
38529;SDS011;24301;54.332;48.386;2022-09-01T13:33:05;9.27;;;3.80;;
38529;SDS011;24301;54.332;48.386;2022-09-01T13:35:31;6.47;;;2.95;;
38529;SDS011;24301;54.332;48.386;2022-09-01T13:37:57;8.05;;;3.38;;
38529;SDS011;24301;54.332;48.386;2022-09-01T13:40:23;10.38;;;5.57;;
38529;SDS011;24301;54.332;48.386;2022-09-01T13:42:52;10.30;;;6.35;;
38529;SDS011;24301;54.332;48.386;2022-09-01T13:45:20;9.80;;;4.70;;
38529;SDS011;24301;54.332;48.386;2022-09-01T13:47:49;8.00;;;4.72;;
38529;SDS011;24301;54.332;48.386;2022-09-01T13:50:17;6.82;;;4.15;;
38529;SDS011;24301;54.332;48.386;2022-09-01T13:52:53;6.53;;;3.58;;
38529;SDS011;24301;54.332;48.386;2022-09-01T13:55:21;5.30;;;3.42;;
38529;SDS011;24301;54.332;48.386;2022-09-01T13:57:50;7.78;;;3.78;;
38529;SDS011;24301;54.332;48.386;2022-09-01T14:00:23;7.50;;;4.28;;
38529;SDS011;24301;54.332;48.386;2022-09-01T14:02:52;9.07;;;6.45;;
38529;SDS011;24301;54.332;48.386;2022-09-01T14:05:21;15.50;;;9.60;;
38529;SDS011;24301;54.332;48.386;2022-09-01T14:07:49;16.98;;;10.65;;
38529;SDS011;24301;54.332;48.386;2022-09-01T14:10:15;17.60;;;10.65;;
38529;SDS011;24301;54.332;48.386;2022-09-01T14:12:42;11.55;;;6.38;;
38529;SDS011;24301;54.332;48.386;2022-09-01T14:15:10;10.23;;;4.82;;
38529;SDS011;24301;54.332;48.386;2022-09-01T14:17:38;11.60;;;4.85;;
38529;SDS011;24301;54.332;48.386;2022-09-01T14:20:07;9.05;;;4.63;;
38529;SDS011;24301;54.332;48.386;2022-09-01T14:22:38;10.27;;;4.95;;
38529;SDS011;24301;54.332;48.386;2022-09-01T14:25:05;8.43;;;5.55;;
38529;SDS011;24301;54.332;48.386;2022-09-01T14:27:32;11.25;;;6.45;;
38529;SDS011;24301;54.332;48.386;2022-09-01T14:29:58;12.63;;;6.57;;
38529;SDS011;24301;54.332;48.386;2022-09-01T14:32:25;14.82;;;6.68;;
38529;SDS011;24301;54.332;48.386;2022-09-01T14:34:52;12.68;;;6.75;;
38529;SDS011;24301;54.332;48.386;2022-09-01T14:37:18;19.05;;;8.25;;
38529;SDS011;24301;54.332;48.386;2022-09-01T14:39:49;10.55;;;6.43;;
38529;SDS011;24301;54.332;48.386;2022-09-01T14:42:15;10.82;;;6.30;;
38529;SDS011;24301;54.332;48.386;2022-09-01T14:44:44;11.02;;;6.10;;
38529;SDS011;24301;54.332;48.386;2022-09-01T14:47:11;12.70;;;6.88;;
38529;SDS011;24301;54.332;48.386;2022-09-01T14:49:37;9.45;;;6.35;;
38529;SDS011;24301;54.332;48.386;2022-09-01T14:52:04;9.43;;;7.03;;
38529;SDS011;24301;54.332;48.386;2022-09-01T14:54:31;9.77;;;6.60;;
38529;SDS011;24301;54.332;48.386;2022-09-01T14:56:58;9.98;;;6.15;;
38529;SDS011;24301;54.332;48.386;2022-09-01T14:59:25;6.68;;;4.63;;
38529;SDS011;24301;54.332;48.386;2022-09-01T15:01:51;8.30;;;6.13;;
38529;SDS011;24301;54.332;48.386;2022-09-01T15:04:17;7.25;;;5.35;;
38529;SDS011;24301;54.332;48.386;2022-09-01T15:06:43;8.73;;;5.68;;
38529;SDS011;24301;54.332;48.386;2022-09-01T15:09:09;8.82;;;6.07;;
38529;SDS011;24301;54.332;48.386;2022-09-01T15:11:35;10.27;;;6.60;;
38529;SDS011;24301;54.332;48.386;2022-09-01T15:14:01;9.80;;;6.75;;
38529;SDS011;24301;54.332;48.386;2022-09-01T15:16:27;9.48;;;7.00;;
38529;SDS011;24301;54.332;48.386;2022-09-01T15:18:53;12.18;;;7.05;;
38529;SDS011;24301;54.332;48.386;2022-09-01T15:21:24;11.15;;;7.25;;
38529;SDS011;24301;54.332;48.386;2022-09-01T15:23:53;12.13;;;8.23;;
38529;SDS011;24301;54.332;48.386;2022-09-01T15:26:19;12.75;;;7.32;;
38529;SDS011;24301;54.332;48.386;2022-09-01T15:28:46;9.45;;;6.38;;
38529;SDS011;24301;54.332;48.386;2022-09-01T15:31:13;8.38;;;5.70;;
38529;SDS011;24301;54.332;48.386;2022-09-01T15:33:42;8.80;;;4.93;;
38529;SDS011;24301;54.332;48.386;2022-09-01T15:36:12;8.40;;;4.88;;
38529;SDS011;24301;54.332;48.386;2022-09-01T15:38:40;7.00;;;4.90;;
38529;SDS011;24301;54.332;48.386;2022-09-01T15:41:07;8.68;;;4.70;;
38529;SDS011;24301;54.332;48.386;2022-09-01T15:43:32;5.47;;;4.30;;
38529;SDS011;24301;54.332;48.386;2022-09-01T15:45:58;6.85;;;4.50;;
38529;SDS011;24301;54.332;48.386;2022-09-01T15:48:28;9.13;;;4.65;;
38529;SDS011;24301;54.332;48.386;2022-09-01T15:51:40;7.82;;;4.30;;
38529;SDS011;24301;54.332;48.386;2022-09-01T15:53:43;9.65;;;4.93;;
38529;SDS011;24301;54.332;48.386;2022-09-01T15:56:08;8.48;;;4.80;;
38529;SDS011;24301;54.332;48.386;2022-09-01T15:58:34;7.38;;;5.10;;
38529;SDS011;24301;54.332;48.386;2022-09-01T16:01:00;10.05;;;5.88;;
38529;SDS011;24301;54.332;48.386;2022-09-01T16:03:26;12.30;;;5.68;;
38529;SDS011;24301;54.332;48.386;2022-09-01T16:05:54;10.65;;;6.30;;
38529;SDS011;24301;54.332;48.386;2022-09-01T16:08:20;9.82;;;7.00;;
38529;SDS011;24301;54.332;48.386;2022-09-01T16:10:46;11.13;;;7.38;;
38529;SDS011;24301;54.332;48.386;2022-09-01T16:13:11;11.13;;;7.97;;
38529;SDS011;24301;54.332;48.386;2022-09-01T16:15:43;12.27;;;8.43;;